sensor_id;sensor_type;location;lat;lon;timestamp;temperature;humidity
42905;DHT22;28550;51.228;4.528;2023-01-13T00:01:40;9.60;73.40
42905;DHT22;28550;51.228;4.528;2023-01-13T00:04:07;9.60;75.90
42905;DHT22;28550;51.228;4.528;2023-01-13T00:06:35;9.60;73.00
42905;DHT22;28550;51.228;4.528;2023-01-13T00:09:00;9.60;73.20
42905;DHT22;28550;51.228;4.528;2023-01-13T00:11:28;9.60;75.90
42905;DHT22;28550;51.228;4.528;2023-01-13T00:13:53;9.50;81.40
42905;DHT22;28550;51.228;4.528;2023-01-13T00:16:20;9.60;69.60
42905;DHT22;28550;51.228;4.528;2023-01-13T00:18:52;9.60;68.20
42905;DHT22;28550;51.228;4.528;2023-01-13T00:21:21;9.60;70.50
42905;DHT22;28550;51.228;4.528;2023-01-13T00:23:47;9.50;73.80
42905;DHT22;28550;51.228;4.528;2023-01-13T00:26:18;9.60;71.50
42905;DHT22;28550;51.228;4.528;2023-01-13T00:28:44;9.40;79.00
42905;DHT22;28550;51.228;4.528;2023-01-13T00:31:13;9.40;78.50
42905;DHT22;28550;51.228;4.528;2023-01-13T00:33:38;9.40;77.50
42905;DHT22;28550;51.228;4.528;2023-01-13T00:36:05;9.30;74.80
42905;DHT22;28550;51.228;4.528;2023-01-13T00:38:34;9.40;69.70
42905;DHT22;28550;51.228;4.528;2023-01-13T00:41:04;9.40;64.50
42905;DHT22;28550;51.228;4.528;2023-01-13T00:43:30;9.40;65.90
42905;DHT22;28550;51.228;4.528;2023-01-13T00:45:59;9.30;60.60
42905;DHT22;28550;51.228;4.528;2023-01-13T00:48:28;9.30;60.40
42905;DHT22;28550;51.228;4.528;2023-01-13T00:50:57;9.30;59.10
42905;DHT22;28550;51.228;4.528;2023-01-13T00:53:24;9.20;57.10
42905;DHT22;28550;51.228;4.528;2023-01-13T00:55:57;9.20;45.80
42905;DHT22;28550;51.228;4.528;2023-01-13T00:58:24;9.20;42.50
42905;DHT22;28550;51.228;4.528;2023-01-13T01:00:50;9.20;25.60
42905;DHT22;28550;51.228;4.528;2023-01-13T01:03:15;9.20;29.50
42905;DHT22;28550;51.228;4.528;2023-01-13T01:05:41;9.20;18.00
42905;DHT22;28550;51.228;4.528;2023-01-13T01:08:07;9.20;8.70
42905;DHT22;28550;51.228;4.528;2023-01-13T01:10:33;9.30;4.30
42905;DHT22;28550;51.228;4.528;2023-01-13T01:12:58;9.30;3.90
42905;DHT22;28550;51.228;4.528;2023-01-13T01:15:25;9.30;13.50
42905;DHT22;28550;51.228;4.528;2023-01-13T01:17:51;9.20;7.60
42905;DHT22;28550;51.228;4.528;2023-01-13T01:20:16;9.20;13.50
42905;DHT22;28550;51.228;4.528;2023-01-13T01:22:42;9.20;13.70
42905;DHT22;28550;51.228;4.528;2023-01-13T01:25:08;9.10;25.90
42905;DHT22;28550;51.228;4.528;2023-01-13T01:27:33;9.10;27.20
42905;DHT22;28550;51.228;4.528;2023-01-13T01:29:59;9.10;33.30
42905;DHT22;28550;51.228;4.528;2023-01-13T01:32:25;9.20;34.70
42905;DHT22;28550;51.228;4.528;2023-01-13T01:34:51;9.10;38.00
42905;DHT22;28550;51.228;4.528;2023-01-13T01:37:16;9.10;41.60
42905;DHT22;28550;51.228;4.528;2023-01-13T01:39:42;9.10;47.20
42905;DHT22;28550;51.228;4.528;2023-01-13T01:42:15;9.10;42.40
42905;DHT22;28550;51.228;4.528;2023-01-13T01:45:12;9.10;47.50
42905;DHT22;28550;51.228;4.528;2023-01-13T01:47:38;9.00;49.80
42905;DHT22;28550;51.228;4.528;2023-01-13T01:50:04;9.00;52.40
42905;DHT22;28550;51.228;4.528;2023-01-13T01:52:41;9.10;47.20
42905;DHT22;28550;51.228;4.528;2023-01-13T01:55:16;9.00;54.60
42905;DHT22;28550;51.228;4.528;2023-01-13T01:57:48;9.00;52.10
42905;DHT22;28550;51.228;4.528;2023-01-13T02:00:16;9.00;54.30
42905;DHT22;28550;51.228;4.528;2023-01-13T02:02:42;9.00;52.20
42905;DHT22;28550;51.228;4.528;2023-01-13T02:05:09;9.00;52.90
42905;DHT22;28550;51.228;4.528;2023-01-13T02:07:35;9.00;52.40
42905;DHT22;28550;51.228;4.528;2023-01-13T02:10:02;9.00;46.70
42905;DHT22;28550;51.228;4.528;2023-01-13T02:12:30;9.10;45.50
42905;DHT22;28550;51.228;4.528;2023-01-13T02:15:08;9.10;45.10
42905;DHT22;28550;51.228;4.528;2023-01-13T02:31:40;9.30;22.30
42905;DHT22;28550;51.228;4.528;2023-01-13T02:34:10;9.40;21.70
42905;DHT22;28550;51.228;4.528;2023-01-13T02:36:57;9.40;19.80
42905;DHT22;28550;51.228;4.528;2023-01-13T02:39:41;9.50;19.30
42905;DHT22;28550;51.228;4.528;2023-01-13T02:45:17;9.50;16.50
42905;DHT22;28550;51.228;4.528;2023-01-13T03:25:00;7.80;99.90
42905;DHT22;28550;51.228;4.528;2023-01-13T03:27:31;7.90;99.90
42905;DHT22;28550;51.228;4.528;2023-01-13T03:30:02;7.90;99.90
42905;DHT22;28550;51.228;4.528;2023-01-13T03:35:37;8.00;99.90
42905;DHT22;28550;51.228;4.528;2023-01-13T03:38:09;8.00;99.90
42905;DHT22;28550;51.228;4.528;2023-01-13T03:40:51;8.00;99.90
42905;DHT22;28550;51.228;4.528;2023-01-13T03:43:19;8.10;99.90
42905;DHT22;28550;51.228;4.528;2023-01-13T03:46:07;8.00;99.90
42905;DHT22;28550;51.228;4.528;2023-01-13T03:48:35;8.20;99.90
42905;DHT22;28550;51.228;4.528;2023-01-13T03:57:10;8.20;99.90
42905;DHT22;28550;51.228;4.528;2023-01-13T04:10:34;7.90;99.90
42905;DHT22;28550;51.228;4.528;2023-01-13T04:16:04;7.90;99.90
42905;DHT22;28550;51.228;4.528;2023-01-13T04:36:52;8.20;98.10
42905;DHT22;28550;51.228;4.528;2023-01-13T04:39:18;8.20;96.80
42905;DHT22;28550;51.228;4.528;2023-01-13T04:41:43;8.10;97.50
42905;DHT22;28550;51.228;4.528;2023-01-13T04:50:33;8.10;95.40
42905;DHT22;28550;51.228;4.528;2023-01-13T04:56:02;8.10;93.30
42905;DHT22;28550;51.228;4.528;2023-01-13T04:58:28;8.10;91.20
42905;DHT22;28550;51.228;4.528;2023-01-13T05:03:57;8.10;86.70
42905;DHT22;28550;51.228;4.528;2023-01-13T05:20:15;8.00;87.90
42905;DHT22;28550;51.228;4.528;2023-01-13T05:22:40;8.10;83.80
42905;DHT22;28550;51.228;4.528;2023-01-13T05:34:35;8.00;88.10
42905;DHT22;28550;51.228;4.528;2023-01-13T06:10:19;8.00;66.60
42905;DHT22;28550;51.228;4.528;2023-01-13T06:21:37;8.10;45.20
42905;DHT22;28550;51.228;4.528;2023-01-13T06:24:04;8.00;43.80
42905;DHT22;28550;51.228;4.528;2023-01-13T06:40:51;8.00;49.30
42905;DHT22;28550;51.228;4.528;2023-01-13T06:43:19;8.00;53.70
42905;DHT22;28550;51.228;4.528;2023-01-13T07:07:33;8.10;45.50
42905;DHT22;28550;51.228;4.528;2023-01-13T07:15:56;8.10;41.10
42905;DHT22;28550;51.228;4.528;2023-01-13T07:18:22;8.00;47.90
42905;DHT22;28550;51.228;4.528;2023-01-13T07:20:54;8.00;45.90
42905;DHT22;28550;51.228;4.528;2023-01-13T07:23:21;8.00;46.40
42905;DHT22;28550;51.228;4.528;2023-01-13T07:28:19;8.10;47.70
42905;DHT22;28550;51.228;4.528;2023-01-13T07:33:49;8.10;48.00
42905;DHT22;28550;51.228;4.528;2023-01-13T07:36:15;8.10;50.30
42905;DHT22;28550;51.228;4.528;2023-01-13T07:47:23;8.10;54.30
42905;DHT22;28550;51.228;4.528;2023-01-13T07:49:48;8.10;47.20
42905;DHT22;28550;51.228;4.528;2023-01-13T08:07:00;8.40;18.70
42905;DHT22;28550;51.228;4.528;2023-01-13T08:09:25;8.50;26.10
42905;DHT22;28550;51.228;4.528;2023-01-13T08:11:54;8.60;19.20
42905;DHT22;28550;51.228;4.528;2023-01-13T08:14:38;8.60;27.20
42905;DHT22;28550;51.228;4.528;2023-01-13T08:17:04;8.60;15.10
42905;DHT22;28550;51.228;4.528;2023-01-13T08:19:31;8.60;9.70
42905;DHT22;28550;51.228;4.528;2023-01-13T08:28:06;8.90;1.00
42905;DHT22;28550;51.228;4.528;2023-01-13T08:30:33;9.00;1.00
42905;DHT22;28550;51.228;4.528;2023-01-13T08:32:59;9.20;1.00
42905;DHT22;28550;51.228;4.528;2023-01-13T08:35:25;9.40;1.00
42905;DHT22;28550;51.228;4.528;2023-01-13T08:37:51;9.40;1.00
42905;DHT22;28550;51.228;4.528;2023-01-13T08:40:16;9.50;1.00
42905;DHT22;28550;51.228;4.528;2023-01-13T08:42:42;9.50;1.00
42905;DHT22;28550;51.228;4.528;2023-01-13T08:45:09;9.50;1.00
42905;DHT22;28550;51.228;4.528;2023-01-13T08:47:35;9.40;1.00
42905;DHT22;28550;51.228;4.528;2023-01-13T08:50:01;9.60;1.00
42905;DHT22;28550;51.228;4.528;2023-01-13T08:52:27;9.80;1.00
42905;DHT22;28550;51.228;4.528;2023-01-13T08:54:53;9.80;1.00
42905;DHT22;28550;51.228;4.528;2023-01-13T08:57:21;9.70;1.00
42905;DHT22;28550;51.228;4.528;2023-01-13T08:59:48;9.60;1.00
42905;DHT22;28550;51.228;4.528;2023-01-13T09:02:18;9.50;1.00
42905;DHT22;28550;51.228;4.528;2023-01-13T09:04:44;9.50;1.00
42905;DHT22;28550;51.228;4.528;2023-01-13T09:07:10;9.50;1.00
42905;DHT22;28550;51.228;4.528;2023-01-13T09:09:35;9.60;1.00
42905;DHT22;28550;51.228;4.528;2023-01-13T09:12:01;9.50;1.00
42905;DHT22;28550;51.228;4.528;2023-01-13T09:14:46;9.50;1.00
42905;DHT22;28550;51.228;4.528;2023-01-13T09:17:11;9.50;1.00
42905;DHT22;28550;51.228;4.528;2023-01-13T09:19:37;9.50;1.00
42905;DHT22;28550;51.228;4.528;2023-01-13T09:22:02;9.60;1.00
42905;DHT22;28550;51.228;4.528;2023-01-13T09:24:28;9.60;1.00
42905;DHT22;28550;51.228;4.528;2023-01-13T09:26:54;9.60;1.00
42905;DHT22;28550;51.228;4.528;2023-01-13T09:29:21;9.60;1.00
42905;DHT22;28550;51.228;4.528;2023-01-13T09:31:48;9.60;1.00
42905;DHT22;28550;51.228;4.528;2023-01-13T09:34:27;9.60;1.00
42905;DHT22;28550;51.228;4.528;2023-01-13T09:37:12;9.80;1.00
42905;DHT22;28550;51.228;4.528;2023-01-13T09:39:37;9.70;1.00
42905;DHT22;28550;51.228;4.528;2023-01-13T09:42:12;9.70;1.00
42905;DHT22;28550;51.228;4.528;2023-01-13T09:47:52;9.90;1.00
42905;DHT22;28550;51.228;4.528;2023-01-13T09:50:32;10.10;1.00
42905;DHT22;28550;51.228;4.528;2023-01-13T09:53:03;10.30;1.00
42905;DHT22;28550;51.228;4.528;2023-01-13T09:55:37;10.30;99.90
42905;DHT22;28550;51.228;4.528;2023-01-13T09:58:11;10.30;99.90
42905;DHT22;28550;51.228;4.528;2023-01-13T10:00:40;10.20;1.00
42905;DHT22;28550;51.228;4.528;2023-01-13T10:08:35;10.30;99.90
42905;DHT22;28550;51.228;4.528;2023-01-13T10:11:03;10.30;99.90
42905;DHT22;28550;51.228;4.528;2023-01-13T10:13:54;10.30;99.90
42905;DHT22;28550;51.228;4.528;2023-01-13T10:19:25;10.00;1.00
42905;DHT22;28550;51.228;4.528;2023-01-13T10:27:35;9.50;1.00
42905;DHT22;28550;51.228;4.528;2023-01-13T10:36:03;9.50;1.00
42905;DHT22;28550;51.228;4.528;2023-01-13T10:38:37;9.40;1.00
42905;DHT22;28550;51.228;4.528;2023-01-13T10:43:33;9.40;1.00
42905;DHT22;28550;51.228;4.528;2023-01-13T10:52:27;9.40;1.00
42905;DHT22;28550;51.228;4.528;2023-01-13T10:54:53;9.40;1.00
42905;DHT22;28550;51.228;4.528;2023-01-13T10:59:45;9.60;1.00
42905;DHT22;28550;51.228;4.528;2023-01-13T11:02:26;9.60;1.00
42905;DHT22;28550;51.228;4.528;2023-01-13T11:13:12;9.90;99.90
42905;DHT22;28550;51.228;4.528;2023-01-13T11:18:41;9.90;1.00
42905;DHT22;28550;51.228;4.528;2023-01-13T11:21:28;10.00;1.00
42905;DHT22;28550;51.228;4.528;2023-01-13T11:24:17;10.10;99.90
42905;DHT22;28550;51.228;4.528;2023-01-13T11:26:45;10.00;99.90
42905;DHT22;28550;51.228;4.528;2023-01-13T11:29:33;10.00;99.90
42905;DHT22;28550;51.228;4.528;2023-01-13T11:32:30;10.00;99.90
42905;DHT22;28550;51.228;4.528;2023-01-13T11:35:07;10.10;99.90
42905;DHT22;28550;51.228;4.528;2023-01-13T11:37:39;10.10;99.90
42905;DHT22;28550;51.228;4.528;2023-01-13T11:40:11;10.10;99.90
42905;DHT22;28550;51.228;4.528;2023-01-13T11:47:53;10.10;99.90
42905;DHT22;28550;51.228;4.528;2023-01-13T12:03:37;10.30;99.90
42905;DHT22;28550;51.228;4.528;2023-01-13T12:06:15;10.30;20.30
42905;DHT22;28550;51.228;4.528;2023-01-13T12:09:02;10.40;15.30
42905;DHT22;28550;51.228;4.528;2023-01-13T12:20:50;10.60;1.00
42905;DHT22;28550;51.228;4.528;2023-01-13T12:22:54;10.60;1.00
42905;DHT22;28550;51.228;4.528;2023-01-13T12:25:24;10.60;1.00
42905;DHT22;28550;51.228;4.528;2023-01-13T12:27:55;10.50;1.00
42905;DHT22;28550;51.228;4.528;2023-01-13T12:32:47;10.50;1.00
42905;DHT22;28550;51.228;4.528;2023-01-13T12:35:20;10.60;1.00
42905;DHT22;28550;51.228;4.528;2023-01-13T12:37:59;10.50;99.90
42905;DHT22;28550;51.228;4.528;2023-01-13T12:41:11;10.40;24.00
42905;DHT22;28550;51.228;4.528;2023-01-13T12:43:17;10.20;1.00
42905;DHT22;28550;51.228;4.528;2023-01-13T12:51:25;9.60;1.00
42905;DHT22;28550;51.228;4.528;2023-01-13T12:53:51;9.50;1.00
42905;DHT22;28550;51.228;4.528;2023-01-13T12:58:49;9.50;4.90
42905;DHT22;28550;51.228;4.528;2023-01-13T13:01:14;9.40;1.00
42905;DHT22;28550;51.228;4.528;2023-01-13T13:03:40;9.50;1.00
42905;DHT22;28550;51.228;4.528;2023-01-13T13:06:12;9.50;1.00
42905;DHT22;28550;51.228;4.528;2023-01-13T13:08:42;9.40;7.50
42905;DHT22;28550;51.228;4.528;2023-01-13T13:11:19;9.40;17.30
42905;DHT22;28550;51.228;4.528;2023-01-13T13:14:04;9.50;1.00
42905;DHT22;28550;51.228;4.528;2023-01-13T13:16:34;9.50;1.00
42905;DHT22;28550;51.228;4.528;2023-01-13T13:19:39;9.50;1.00
42905;DHT22;28550;51.228;4.528;2023-01-13T13:24:34;9.40;22.80
42905;DHT22;28550;51.228;4.528;2023-01-13T13:35:20;9.40;12.40
42905;DHT22;28550;51.228;4.528;2023-01-13T13:37:53;9.40;1.00
42905;DHT22;28550;51.228;4.528;2023-01-13T13:40:41;9.30;1.00
42905;DHT22;28550;51.228;4.528;2023-01-13T13:43:26;9.30;1.00
42905;DHT22;28550;51.228;4.528;2023-01-13T13:49:08;9.30;1.00
42905;DHT22;28550;51.228;4.528;2023-01-13T13:51:35;9.50;1.00
42905;DHT22;28550;51.228;4.528;2023-01-13T13:54:02;9.50;1.00
42905;DHT22;28550;51.228;4.528;2023-01-13T13:56:29;9.50;1.00
42905;DHT22;28550;51.228;4.528;2023-01-13T13:58:56;9.60;1.00
42905;DHT22;28550;51.228;4.528;2023-01-13T14:01:28;9.70;1.00
42905;DHT22;28550;51.228;4.528;2023-01-13T14:04:03;9.70;1.00
42905;DHT22;28550;51.228;4.528;2023-01-13T14:06:30;9.70;1.00
42905;DHT22;28550;51.228;4.528;2023-01-13T14:08:57;9.80;1.00
42905;DHT22;28550;51.228;4.528;2023-01-13T14:11:26;9.70;1.00
42905;DHT22;28550;51.228;4.528;2023-01-13T14:14:26;9.60;1.00
42905;DHT22;28550;51.228;4.528;2023-01-13T14:16:45;9.60;1.00
42905;DHT22;28550;51.228;4.528;2023-01-13T14:21:56;9.60;1.00
42905;DHT22;28550;51.228;4.528;2023-01-13T14:24:23;9.50;1.00
42905;DHT22;28550;51.228;4.528;2023-01-13T14:26:49;9.50;1.00
42905;DHT22;28550;51.228;4.528;2023-01-13T14:29:19;9.50;1.00
42905;DHT22;28550;51.228;4.528;2023-01-13T14:31:45;9.50;1.00
42905;DHT22;28550;51.228;4.528;2023-01-13T14:34:10;9.40;1.00
42905;DHT22;28550;51.228;4.528;2023-01-13T14:36:37;9.40;1.00
42905;DHT22;28550;51.228;4.528;2023-01-13T14:43:55;9.60;1.00
42905;DHT22;28550;51.228;4.528;2023-01-13T14:46:21;9.70;1.00
42905;DHT22;28550;51.228;4.528;2023-01-13T14:48:52;9.60;1.00
42905;DHT22;28550;51.228;4.528;2023-01-13T14:51:20;9.60;1.00
42905;DHT22;28550;51.228;4.528;2023-01-13T14:53:46;9.60;1.00
42905;DHT22;28550;51.228;4.528;2023-01-13T14:59:00;9.70;1.00
42905;DHT22;28550;51.228;4.528;2023-01-13T15:01:28;9.80;1.00
42905;DHT22;28550;51.228;4.528;2023-01-13T15:04:14;9.80;1.00
42905;DHT22;28550;51.228;4.528;2023-01-13T15:06:44;9.90;1.00
42905;DHT22;28550;51.228;4.528;2023-01-13T15:09:13;10.00;99.90
42905;DHT22;28550;51.228;4.528;2023-01-13T15:11:38;10.10;1.00
42905;DHT22;28550;51.228;4.528;2023-01-13T15:14:08;10.10;99.90
42905;DHT22;28550;51.228;4.528;2023-01-13T15:16:38;10.10;99.90
42905;DHT22;28550;51.228;4.528;2023-01-13T15:19:03;10.10;99.90
42905;DHT22;28550;51.228;4.528;2023-01-13T15:21:29;10.20;99.90
42905;DHT22;28550;51.228;4.528;2023-01-13T15:23:58;10.20;17.10
42905;DHT22;28550;51.228;4.528;2023-01-13T15:26:33;10.20;1.00
42905;DHT22;28550;51.228;4.528;2023-01-13T15:28:59;10.30;1.00
42905;DHT22;28550;51.228;4.528;2023-01-13T15:34:12;10.20;29.70
42905;DHT22;28550;51.228;4.528;2023-01-13T15:36:38;10.20;1.00
42905;DHT22;28550;51.228;4.528;2023-01-13T15:39:08;10.20;1.00
42905;DHT22;28550;51.228;4.528;2023-01-13T15:41:39;10.20;1.00
42905;DHT22;28550;51.228;4.528;2023-01-13T15:44:24;10.20;45.70
42905;DHT22;28550;51.228;4.528;2023-01-13T15:47:08;10.20;1.00
42905;DHT22;28550;51.228;4.528;2023-01-13T15:49:35;10.20;1.00
42905;DHT22;28550;51.228;4.528;2023-01-13T15:52:03;10.20;70.80
42905;DHT22;28550;51.228;4.528;2023-01-13T15:54:33;10.20;44.90
42905;DHT22;28550;51.228;4.528;2023-01-13T15:56:58;10.20;99.90
42905;DHT22;28550;51.228;4.528;2023-01-13T15:59:25;10.10;99.90
42905;DHT22;28550;51.228;4.528;2023-01-13T16:01:51;10.10;99.90
42905;DHT22;28550;51.228;4.528;2023-01-13T16:04:20;10.00;99.90
42905;DHT22;28550;51.228;4.528;2023-01-13T16:06:45;10.00;99.90
42905;DHT22;28550;51.228;4.528;2023-01-13T16:09:13;10.00;99.90
42905;DHT22;28550;51.228;4.528;2023-01-13T16:11:39;10.00;99.90
42905;DHT22;28550;51.228;4.528;2023-01-13T16:14:04;10.10;99.90
42905;DHT22;28550;51.228;4.528;2023-01-13T16:16:31;10.00;99.90
42905;DHT22;28550;51.228;4.528;2023-01-13T16:18:59;10.00;1.00
42905;DHT22;28550;51.228;4.528;2023-01-13T16:21:42;10.00;99.90
42905;DHT22;28550;51.228;4.528;2023-01-13T16:24:10;10.00;99.90
42905;DHT22;28550;51.228;4.528;2023-01-13T16:26:35;9.90;99.90
42905;DHT22;28550;51.228;4.528;2023-01-13T16:29:03;10.00;99.90
42905;DHT22;28550;51.228;4.528;2023-01-13T16:31:31;10.00;1.00
42905;DHT22;28550;51.228;4.528;2023-01-13T16:33:58;10.00;99.90
42905;DHT22;28550;51.228;4.528;2023-01-13T16:36:25;10.00;99.90
42905;DHT22;28550;51.228;4.528;2023-01-13T16:38:51;9.90;99.90
42905;DHT22;28550;51.228;4.528;2023-01-13T16:41:19;9.80;1.00
42905;DHT22;28550;51.228;4.528;2023-01-13T16:43:45;9.70;1.00
42905;DHT22;28550;51.228;4.528;2023-01-13T16:48:41;9.70;1.00
42905;DHT22;28550;51.228;4.528;2023-01-13T16:51:07;9.70;1.00
42905;DHT22;28550;51.228;4.528;2023-01-13T16:53:36;9.60;1.00
42905;DHT22;28550;51.228;4.528;2023-01-13T16:56:02;9.70;1.00
42905;DHT22;28550;51.228;4.528;2023-01-13T16:58:29;9.70;1.00
42905;DHT22;28550;51.228;4.528;2023-01-13T17:00:55;9.60;1.00
42905;DHT22;28550;51.228;4.528;2023-01-13T17:03:20;9.60;1.00
42905;DHT22;28550;51.228;4.528;2023-01-13T17:05:47;9.70;1.00
42905;DHT22;28550;51.228;4.528;2023-01-13T17:08:13;9.70;1.00
42905;DHT22;28550;51.228;4.528;2023-01-13T17:10:43;9.70;1.00
42905;DHT22;28550;51.228;4.528;2023-01-13T17:13:08;9.80;1.00
42905;DHT22;28550;51.228;4.528;2023-01-13T17:15:34;9.80;1.00
42905;DHT22;28550;51.228;4.528;2023-01-13T17:18:01;9.80;1.00
42905;DHT22;28550;51.228;4.528;2023-01-13T17:20:31;9.80;1.00
42905;DHT22;28550;51.228;4.528;2023-01-13T17:23:01;9.80;1.00
42905;DHT22;28550;51.228;4.528;2023-01-13T17:25:26;9.80;1.00
42905;DHT22;28550;51.228;4.528;2023-01-13T17:27:52;9.80;1.00
42905;DHT22;28550;51.228;4.528;2023-01-13T17:30:18;9.70;1.00
42905;DHT22;28550;51.228;4.528;2023-01-13T17:32:46;9.80;1.00
42905;DHT22;28550;51.228;4.528;2023-01-13T17:35:11;9.70;1.00
42905;DHT22;28550;51.228;4.528;2023-01-13T17:37:40;9.70;1.00
42905;DHT22;28550;51.228;4.528;2023-01-13T17:40:07;9.70;1.00
42905;DHT22;28550;51.228;4.528;2023-01-13T17:42:36;9.80;1.00
42905;DHT22;28550;51.228;4.528;2023-01-13T17:45:02;9.70;1.00
42905;DHT22;28550;51.228;4.528;2023-01-13T17:47:28;9.70;1.00
42905;DHT22;28550;51.228;4.528;2023-01-13T17:52:30;9.60;1.00
42905;DHT22;28550;51.228;4.528;2023-01-13T17:55:40;9.70;1.00
42905;DHT22;28550;51.228;4.528;2023-01-13T17:58:39;9.70;1.00
42905;DHT22;28550;51.228;4.528;2023-01-13T18:01:35;9.70;1.00
42905;DHT22;28550;51.228;4.528;2023-01-13T18:04:28;9.70;1.00
42905;DHT22;28550;51.228;4.528;2023-01-13T18:06:56;9.70;1.00
42905;DHT22;28550;51.228;4.528;2023-01-13T18:09:37;9.70;1.00
42905;DHT22;28550;51.228;4.528;2023-01-13T18:15:17;9.80;1.00
42905;DHT22;28550;51.228;4.528;2023-01-13T18:18:28;9.80;1.00
42905;DHT22;28550;51.228;4.528;2023-01-13T18:23:57;9.70;1.00
42905;DHT22;28550;51.228;4.528;2023-01-13T18:26:42;9.80;1.00
42905;DHT22;28550;51.228;4.528;2023-01-13T18:36:13;9.80;1.00
42905;DHT22;28550;51.228;4.528;2023-01-13T18:38:53;9.80;1.00
42905;DHT22;28550;51.228;4.528;2023-01-13T18:41:49;9.80;1.00
42905;DHT22;28550;51.228;4.528;2023-01-13T18:44:50;9.80;1.00
42905;DHT22;28550;51.228;4.528;2023-01-13T18:47:54;9.80;1.00
42905;DHT22;28550;51.228;4.528;2023-01-13T18:53:17;9.80;1.00
42905;DHT22;28550;51.228;4.528;2023-01-13T18:55:47;9.80;1.00
42905;DHT22;28550;51.228;4.528;2023-01-13T18:58:18;9.80;1.00
42905;DHT22;28550;51.228;4.528;2023-01-13T19:04:00;9.80;1.00
42905;DHT22;28550;51.228;4.528;2023-01-13T19:09:30;9.80;1.00
42905;DHT22;28550;51.228;4.528;2023-01-13T19:12:34;9.80;1.00
42905;DHT22;28550;51.228;4.528;2023-01-13T19:15:30;9.80;1.00
42905;DHT22;28550;51.228;4.528;2023-01-13T19:20:24;9.80;1.00
42905;DHT22;28550;51.228;4.528;2023-01-13T19:22:50;9.80;1.00
42905;DHT22;28550;51.228;4.528;2023-01-13T19:25:21;9.80;1.00
42905;DHT22;28550;51.228;4.528;2023-01-13T19:27:47;9.80;1.00
42905;DHT22;28550;51.228;4.528;2023-01-13T19:30:15;9.80;1.00
42905;DHT22;28550;51.228;4.528;2023-01-13T19:32:42;9.80;1.00
42905;DHT22;28550;51.228;4.528;2023-01-13T19:35:16;9.90;1.00
42905;DHT22;28550;51.228;4.528;2023-01-13T19:37:50;9.80;1.00
42905;DHT22;28550;51.228;4.528;2023-01-13T19:40:17;9.80;1.00
42905;DHT22;28550;51.228;4.528;2023-01-13T19:42:58;9.80;1.00
42905;DHT22;28550;51.228;4.528;2023-01-13T19:48:46;9.60;1.00
42905;DHT22;28550;51.228;4.528;2023-01-13T19:54:52;9.40;1.00
42905;DHT22;28550;51.228;4.528;2023-01-13T19:57:47;9.40;1.00
42905;DHT22;28550;51.228;4.528;2023-01-13T20:00:20;9.30;1.00
42905;DHT22;28550;51.228;4.528;2023-01-13T20:05:35;9.40;1.00
42905;DHT22;28550;51.228;4.528;2023-01-13T20:08:01;9.40;1.00
42905;DHT22;28550;51.228;4.528;2023-01-13T20:16:39;9.20;1.00
42905;DHT22;28550;51.228;4.528;2023-01-13T20:19:05;9.10;1.00
42905;DHT22;28550;51.228;4.528;2023-01-13T20:21:53;9.00;1.00
42905;DHT22;28550;51.228;4.528;2023-01-13T20:24:40;9.00;1.00
42905;DHT22;28550;51.228;4.528;2023-01-13T20:27:25;9.00;1.00
42905;DHT22;28550;51.228;4.528;2023-01-13T20:30:11;8.80;1.00
42905;DHT22;28550;51.228;4.528;2023-01-13T20:32:39;8.80;1.00
42905;DHT22;28550;51.228;4.528;2023-01-13T20:35:05;8.90;1.00
42905;DHT22;28550;51.228;4.528;2023-01-13T20:37:54;8.80;1.00
42905;DHT22;28550;51.228;4.528;2023-01-13T20:41:16;8.70;1.00
42905;DHT22;28550;51.228;4.528;2023-01-13T20:44:00;8.80;1.00
42905;DHT22;28550;51.228;4.528;2023-01-13T20:46:27;8.70;1.90
42905;DHT22;28550;51.228;4.528;2023-01-13T20:48:57;8.60;6.60
42905;DHT22;28550;51.228;4.528;2023-01-13T20:51:31;8.60;8.90
42905;DHT22;28550;51.228;4.528;2023-01-13T20:54:04;8.70;1.00
42905;DHT22;28550;51.228;4.528;2023-01-13T20:56:51;8.60;2.10
42905;DHT22;28550;51.228;4.528;2023-01-13T20:59:44;8.60;7.00
42905;DHT22;28550;51.228;4.528;2023-01-13T21:02:38;8.50;16.10
42905;DHT22;28550;51.228;4.528;2023-01-13T21:05:20;8.60;5.00
42905;DHT22;28550;51.228;4.528;2023-01-13T21:07:58;8.50;10.70
42905;DHT22;28550;51.228;4.528;2023-01-13T21:16:08;8.40;9.20
42905;DHT22;28550;51.228;4.528;2023-01-13T21:18:52;8.50;1.00
42905;DHT22;28550;51.228;4.528;2023-01-13T21:21:45;8.50;1.00
42905;DHT22;28550;51.228;4.528;2023-01-13T21:27:18;8.50;1.00
42905;DHT22;28550;51.228;4.528;2023-01-13T21:29:56;8.50;1.00
42905;DHT22;28550;51.228;4.528;2023-01-13T21:32:56;8.50;1.00
42905;DHT22;28550;51.228;4.528;2023-01-13T21:35:44;8.50;1.00
42905;DHT22;28550;51.228;4.528;2023-01-13T21:38:13;8.50;1.00
42905;DHT22;28550;51.228;4.528;2023-01-13T21:40:45;8.50;1.00
42905;DHT22;28550;51.228;4.528;2023-01-13T21:43:13;8.40;1.00
42905;DHT22;28550;51.228;4.528;2023-01-13T21:45:57;8.40;1.00
42905;DHT22;28550;51.228;4.528;2023-01-13T21:51:46;8.40;1.00
42905;DHT22;28550;51.228;4.528;2023-01-13T21:54:12;8.40;1.00
42905;DHT22;28550;51.228;4.528;2023-01-13T21:56:48;8.20;1.00
42905;DHT22;28550;51.228;4.528;2023-01-13T22:02:20;8.30;1.00
42905;DHT22;28550;51.228;4.528;2023-01-13T22:05:14;8.20;1.00
42905;DHT22;28550;51.228;4.528;2023-01-13T22:08:03;8.20;1.00
42905;DHT22;28550;51.228;4.528;2023-01-13T22:10:50;8.20;1.00
42905;DHT22;28550;51.228;4.528;2023-01-13T22:21:35;8.20;1.00
42905;DHT22;28550;51.228;4.528;2023-01-13T22:33:11;8.30;1.00
42905;DHT22;28550;51.228;4.528;2023-01-13T22:35:52;8.30;1.00
42905;DHT22;28550;51.228;4.528;2023-01-13T22:38:18;8.30;1.00
42905;DHT22;28550;51.228;4.528;2023-01-13T22:40:53;8.30;1.00
42905;DHT22;28550;51.228;4.528;2023-01-13T22:43:50;8.30;1.00
42905;DHT22;28550;51.228;4.528;2023-01-13T22:49:47;8.40;1.00
42905;DHT22;28550;51.228;4.528;2023-01-13T22:57:58;8.30;1.00
42905;DHT22;28550;51.228;4.528;2023-01-13T23:03:24;8.30;1.00
42905;DHT22;28550;51.228;4.528;2023-01-13T23:06:14;8.20;1.00
42905;DHT22;28550;51.228;4.528;2023-01-13T23:08:49;8.20;1.00
42905;DHT22;28550;51.228;4.528;2023-01-13T23:11:47;8.20;1.00
42905;DHT22;28550;51.228;4.528;2023-01-13T23:14:22;8.10;11.70
42905;DHT22;28550;51.228;4.528;2023-01-13T23:16:56;8.00;14.40
42905;DHT22;28550;51.228;4.528;2023-01-13T23:22:31;7.90;25.90
42905;DHT22;28550;51.228;4.528;2023-01-13T23:25:14;7.90;30.90
42905;DHT22;28550;51.228;4.528;2023-01-13T23:30:58;7.80;38.70
42905;DHT22;28550;51.228;4.528;2023-01-13T23:33:32;7.70;47.90
42905;DHT22;28550;51.228;4.528;2023-01-13T23:36:15;7.70;46.20
42905;DHT22;28550;51.228;4.528;2023-01-13T23:38:58;7.70;49.60
42905;DHT22;28550;51.228;4.528;2023-01-13T23:41:28;7.70;51.00
42905;DHT22;28550;51.228;4.528;2023-01-13T23:44:02;7.70;54.30
42905;DHT22;28550;51.228;4.528;2023-01-13T23:46:32;7.60;56.20
42905;DHT22;28550;51.228;4.528;2023-01-13T23:49:10;7.60;59.50
42905;DHT22;28550;51.228;4.528;2023-01-13T23:51:51;7.60;58.20
42905;DHT22;28550;51.228;4.528;2023-01-13T23:54:27;7.60;59.20
42905;DHT22;28550;51.228;4.528;2023-01-13T23:56:57;7.60;57.00
42905;DHT22;28550;51.228;4.528;2023-01-13T23:59:44;7.40;62.40
